createdAt,value
2023-04-30T00:01:04.348Z,100.00
2023-04-30T00:03:32.906Z,100.00
2023-04-30T00:06:01.008Z,100.00
2023-04-30T00:08:30.400Z,100.00
2023-04-30T00:10:58.672Z,100.00
2023-04-30T00:13:26.876Z,100.00
2023-04-30T00:39:02.806Z,100.00
2023-04-30T00:41:33.321Z,100.00
2023-04-30T00:44:03.013Z,100.00
2023-04-30T00:46:31.684Z,100.00
2023-04-30T00:49:02.370Z,100.00
2023-04-30T00:51:32.800Z,100.00
2023-04-30T00:54:02.552Z,100.00
2023-04-30T01:20:10.727Z,100.00
2023-04-30T01:22:51.677Z,100.00
2023-04-30T01:25:42.933Z,100.00
2023-04-30T01:28:22.592Z,100.00
2023-04-30T01:30:51.312Z,100.00
2023-04-30T01:33:20.468Z,100.00
2023-04-30T01:36:13.213Z,100.00
2023-04-30T01:58:17.168Z,100.00
2023-04-30T02:00:46.439Z,100.00
2023-04-30T02:03:14.950Z,100.00
2023-04-30T02:05:42.920Z,100.00
2023-04-30T02:08:11.684Z,100.00
2023-04-30T02:10:40.088Z,100.00
2023-04-30T02:13:08.085Z,100.00
2023-04-30T02:15:36.163Z,100.00
2023-04-30T02:18:04.877Z,100.00
2023-04-30T02:20:33.009Z,100.00
2023-04-30T02:23:01.943Z,100.00
2023-04-30T02:25:30.570Z,100.00
2023-04-30T02:27:58.452Z,100.00
2023-04-30T02:30:26.466Z,100.00
2023-04-30T02:32:54.822Z,100.00
2023-04-30T02:35:22.787Z,100.00
2023-04-30T02:37:51.127Z,100.00
2023-04-30T02:40:19.489Z,100.00
2023-04-30T02:42:48.442Z,100.00
2023-04-30T02:45:16.874Z,100.00
2023-04-30T02:47:45.316Z,100.00
2023-04-30T02:52:56.333Z,100.00
2023-04-30T03:49:40.898Z,100.00
2023-04-30T03:52:09.579Z,100.00
2023-04-30T03:54:37.913Z,100.00
2023-04-30T03:57:08.009Z,100.00
2023-04-30T03:59:36.507Z,100.00
2023-04-30T04:02:04.390Z,100.00
2023-04-30T04:04:32.589Z,100.00
2023-04-30T04:07:01.545Z,100.00
2023-04-30T04:09:29.815Z,100.00
2023-04-30T04:11:58.183Z,100.00
2023-04-30T04:34:50.787Z,100.00
2023-04-30T04:37:19.568Z,100.00
2023-04-30T04:39:47.632Z,100.00
2023-04-30T04:42:20.066Z,100.00
2023-04-30T04:44:48.610Z,100.00
2023-04-30T04:47:19.918Z,100.00
2023-04-30T04:49:48.578Z,100.00
2023-04-30T04:52:16.643Z,100.00
2023-04-30T05:12:43.251Z,100.00
2023-04-30T05:15:11.950Z,100.00
2023-04-30T05:17:39.923Z,100.00
2023-04-30T05:20:08.854Z,100.00
2023-04-30T05:22:37.184Z,100.00
2023-04-30T05:25:06.058Z,100.00
2023-04-30T05:27:34.337Z,100.00
2023-04-30T05:47:55.227Z,98.38
2023-04-30T05:50:23.804Z,98.38
2023-04-30T05:52:51.798Z,99.96
2023-04-30T05:55:19.682Z,99.87
2023-04-30T05:57:47.976Z,97.37
2023-04-30T06:00:16.286Z,94.63
2023-04-30T06:02:44.673Z,93.33
2023-04-30T06:05:15.294Z,91.62
2023-04-30T06:28:10.233Z,84.42
2023-04-30T06:30:38.912Z,84.42
2023-04-30T06:33:06.864Z,87.78
2023-04-30T06:35:35.064Z,86.25
2023-04-30T06:38:03.576Z,86.14
2023-04-30T06:40:31.499Z,86.32
2023-04-30T06:42:59.490Z,85.02
2023-04-30T06:45:29.509Z,83.43
2023-04-30T07:05:41.818Z,71.99
2023-04-30T07:08:10.993Z,71.99
2023-04-30T07:10:38.871Z,74.59
2023-04-30T07:13:08.425Z,75.71
2023-04-30T07:15:37.279Z,77.38
2023-04-30T07:18:05.189Z,75.93
2023-04-30T07:20:33.701Z,76.45
2023-04-30T07:23:08.391Z,75.16
2023-04-30T07:46:13.781Z,69.25
2023-04-30T07:48:42.479Z,69.25
2023-04-30T07:51:10.582Z,71.33
2023-04-30T07:53:38.756Z,72.32
2023-04-30T07:56:08.358Z,71.37
2023-04-30T07:58:36.354Z,63.92
2023-04-30T08:01:04.311Z,51.05
2023-04-30T08:19:04.212Z,34.63
2023-04-30T08:21:33.703Z,34.63
2023-04-30T08:24:01.897Z,34.25
2023-04-30T08:26:29.913Z,36.46
2023-04-30T08:28:58.131Z,34.94
2023-04-30T08:31:26.232Z,34.45
2023-04-30T08:33:54.648Z,35.42
2023-04-30T08:59:16.231Z,36.92
2023-04-30T09:01:46.060Z,36.92
2023-04-30T09:04:14.207Z,38.27
2023-04-30T09:06:43.077Z,37.02
2023-04-30T09:09:16.161Z,41.35
2023-04-30T09:11:44.106Z,37.76
2023-04-30T09:14:12.976Z,38.24
2023-04-30T09:16:52.955Z,37.60
2023-04-30T09:41:02.048Z,46.72
2023-04-30T09:43:31.814Z,46.72
2023-04-30T09:46:00.703Z,48.99
2023-04-30T09:48:28.946Z,50.56
2023-04-30T09:50:57.875Z,49.16
2023-04-30T09:53:27.233Z,50.30
2023-04-30T09:55:59.681Z,48.87
2023-04-30T10:16:57.889Z,48.20
2023-04-30T10:19:32.210Z,48.22
2023-04-30T10:22:01.800Z,48.61
2023-04-30T10:24:31.292Z,48.27
2023-04-30T10:27:00.164Z,47.25
2023-04-30T10:29:28.256Z,46.59
2023-04-30T10:31:58.899Z,47.53
2023-04-30T10:34:36.188Z,46.07
2023-04-30T10:56:01.450Z,45.47
2023-04-30T10:58:32.078Z,45.47
2023-04-30T11:01:12.372Z,44.91
2023-04-30T11:03:43.316Z,45.69
2023-04-30T11:06:12.940Z,44.30
2023-04-30T11:08:46.607Z,44.31
2023-04-30T11:11:24.204Z,44.11
2023-04-30T11:29:59.319Z,42.03
2023-04-30T11:32:38.615Z,42.03
2023-04-30T11:35:07.563Z,44.14
2023-04-30T11:37:38.822Z,44.51
2023-04-30T11:40:11.097Z,45.16
2023-04-30T11:42:44.921Z,43.26
2023-04-30T11:45:18.073Z,43.23
2023-04-30T11:47:49.003Z,43.57
2023-04-30T11:50:21.430Z,43.50
2023-04-30T12:08:06.913Z,45.10
2023-04-30T12:10:36.628Z,45.10
2023-04-30T12:13:04.754Z,45.00
2023-04-30T12:15:33.440Z,47.11
2023-04-30T12:18:15.570Z,46.26
2023-04-30T12:20:43.920Z,45.43
2023-04-30T12:23:12.313Z,45.28
2023-04-30T12:25:44.009Z,45.73
2023-04-30T12:43:21.557Z,42.49
2023-04-30T12:45:55.982Z,42.49
2023-04-30T12:48:25.369Z,43.30
2023-04-30T12:50:55.619Z,42.57
2023-04-30T12:53:24.325Z,42.99
2023-04-30T12:56:27.886Z,43.18
2023-04-30T13:19:42.347Z,41.58
2023-04-30T13:22:11.095Z,41.58
2023-04-30T13:24:39.174Z,43.97
2023-04-30T13:27:07.092Z,44.09
2023-04-30T13:29:35.388Z,42.20
2023-04-30T13:32:06.779Z,42.93
2023-04-30T13:34:34.831Z,43.04
2023-04-30T13:57:42.373Z,42.54
2023-04-30T14:00:11.860Z,42.54
2023-04-30T14:02:40.370Z,43.42
2023-04-30T14:05:09.145Z,43.69
2023-04-30T14:07:37.546Z,44.10
2023-04-30T14:10:06.469Z,44.07
2023-04-30T14:12:34.665Z,44.06
2023-04-30T14:15:03.573Z,43.33
2023-04-30T14:17:32.064Z,43.99
2023-04-30T14:38:12.529Z,42.02
2023-04-30T14:40:42.501Z,42.02
2023-04-30T14:43:10.448Z,43.10
2023-04-30T14:45:39.558Z,43.26
2023-04-30T14:48:08.134Z,43.23
2023-04-30T14:50:36.068Z,43.39
2023-04-30T14:53:07.138Z,43.92
2023-04-30T14:55:35.702Z,43.41
2023-04-30T15:15:51.000Z,42.52
2023-04-30T15:18:19.763Z,42.52
2023-04-30T15:20:48.182Z,44.26
2023-04-30T15:23:16.037Z,44.57
2023-04-30T15:25:44.466Z,44.93
2023-04-30T15:28:12.532Z,44.81
2023-04-30T15:30:40.932Z,45.63
2023-04-30T15:33:09.317Z,45.75
2023-04-30T15:35:37.332Z,45.44
2023-04-30T15:38:05.965Z,46.28
2023-04-30T16:00:58.920Z,46.69
2023-04-30T16:03:27.925Z,46.69
2023-04-30T16:05:56.185Z,48.34
2023-04-30T16:08:24.297Z,47.36
2023-04-30T16:10:53.256Z,47.85
2023-04-30T16:13:21.219Z,48.90
2023-04-30T16:15:49.311Z,48.51
2023-04-30T16:41:40.753Z,49.34
2023-04-30T16:44:09.945Z,49.34
2023-04-30T16:46:38.183Z,51.27
2023-04-30T16:49:06.249Z,51.57
2023-04-30T16:51:34.859Z,50.67
2023-04-30T16:54:02.962Z,52.04
2023-04-30T16:56:31.100Z,52.25
2023-04-30T16:58:59.556Z,53.18
2023-04-30T17:01:27.807Z,52.71
2023-04-30T17:03:56.345Z,53.02
2023-04-30T17:06:24.643Z,53.16
2023-04-30T17:08:53.506Z,55.20
2023-04-30T17:11:23.593Z,54.94
2023-04-30T17:41:24.162Z,57.38
2023-04-30T17:43:53.004Z,57.38
2023-04-30T17:46:21.224Z,59.04
2023-04-30T17:48:50.015Z,59.32
2023-04-30T17:51:18.606Z,59.41
2023-04-30T17:53:46.651Z,60.06
2023-04-30T17:56:15.227Z,60.65
2023-04-30T17:58:43.674Z,60.79
2023-04-30T18:01:13.495Z,61.15
2023-04-30T18:24:05.095Z,64.22
2023-04-30T18:26:33.677Z,64.22
2023-04-30T18:29:01.741Z,66.32
2023-04-30T18:31:30.796Z,67.88
2023-04-30T18:33:59.044Z,67.52
2023-04-30T18:36:27.156Z,67.77
2023-04-30T18:38:55.591Z,68.11
2023-04-30T18:41:23.970Z,68.64
2023-04-30T18:59:36.583Z,68.78
2023-04-30T19:02:05.843Z,68.78
2023-04-30T19:04:33.907Z,70.84
2023-04-30T19:07:01.854Z,70.68
2023-04-30T19:09:30.300Z,70.74
2023-04-30T19:11:59.060Z,70.82
2023-04-30T19:14:27.228Z,71.29
2023-04-30T19:37:36.852Z,67.61
2023-04-30T19:40:12.410Z,67.61
2023-04-30T19:42:40.818Z,69.49
2023-04-30T19:45:10.943Z,69.21
2023-04-30T19:47:39.042Z,69.16
2023-04-30T19:50:08.067Z,69.44
2023-04-30T19:52:36.905Z,69.38
2023-04-30T19:57:55.907Z,67.12
2023-04-30T20:00:26.253Z,67.12
2023-04-30T20:02:55.067Z,69.19
2023-04-30T20:05:23.524Z,68.71
2023-04-30T20:07:51.859Z,69.73
2023-04-30T20:10:20.657Z,70.61
2023-04-30T20:33:20.593Z,69.59
2023-04-30T20:35:49.728Z,69.59
2023-04-30T20:38:19.943Z,72.68
2023-04-30T20:40:48.648Z,72.22
2023-04-30T20:43:17.284Z,72.69
2023-04-30T20:45:45.830Z,72.95
2023-04-30T20:48:14.153Z,73.22
2023-04-30T20:50:42.425Z,73.28
2023-04-30T21:10:46.644Z,75.40
2023-04-30T21:13:15.415Z,75.40
2023-04-30T21:15:43.449Z,76.96
2023-04-30T21:18:11.842Z,77.22
2023-04-30T21:20:40.027Z,78.02
2023-04-30T21:23:07.851Z,78.03
2023-04-30T21:25:38.174Z,78.61
2023-04-30T21:28:06.656Z,78.90
2023-04-30T21:30:40.677Z,79.09
2023-04-30T21:48:08.571Z,81.65
2023-04-30T21:50:38.738Z,81.97
2023-04-30T21:53:06.927Z,81.92
2023-04-30T21:55:35.170Z,81.83
2023-04-30T21:58:03.680Z,81.35
2023-04-30T22:00:31.676Z,81.99
2023-04-30T22:03:00.229Z,82.44
2023-04-30T22:05:28.446Z,82.06
2023-04-30T22:25:22.195Z,82.88
2023-04-30T22:27:51.024Z,83.10
2023-04-30T22:30:19.177Z,83.54
2023-04-30T22:32:47.336Z,83.35
2023-04-30T22:35:18.820Z,83.62
2023-04-30T22:37:46.770Z,82.37
2023-04-30T22:40:15.112Z,82.21
2023-04-30T22:42:43.758Z,81.83
2023-04-30T23:03:00.319Z,78.40
2023-04-30T23:05:28.949Z,78.40
2023-04-30T23:07:57.219Z,80.59
2023-04-30T23:10:25.226Z,80.91
2023-04-30T23:12:56.251Z,80.96
2023-04-30T23:15:24.054Z,81.17
2023-04-30T23:17:52.001Z,81.43
2023-04-30T23:20:20.491Z,81.58
2023-04-30T23:22:48.348Z,81.91
2023-04-30T23:25:17.025Z,82.57
2023-04-30T23:27:45.387Z,82.72
2023-04-30T23:30:13.742Z,83.10
2023-04-30T23:52:50.702Z,83.56
2023-04-30T23:55:20.325Z,83.56
2023-04-30T23:57:48.638Z,84.97
